createdAt,value
2018-02-02T00:00:01.187Z,1009.78
2018-02-02T00:01:01.043Z,1009.81
2018-02-02T00:02:01.126Z,1009.84
2018-02-02T00:03:01.350Z,1009.78
2018-02-02T00:04:05.104Z,1009.78
2018-02-02T00:05:04.996Z,1009.82
2018-02-02T00:06:05.077Z,1009.81
2018-02-02T00:07:05.057Z,1009.8
2018-02-02T00:08:05.083Z,1009.79
2018-02-02T00:09:05.078Z,1009.76
2018-02-02T00:10:05.092Z,1009.75
2018-02-02T00:11:05.047Z,1009.73
2018-02-02T00:12:05.089Z,1009.77
2018-02-02T00:13:05.099Z,1009.72
2018-02-02T00:14:05.084Z,1009.7
2018-02-02T00:15:05.074Z,1009.74
2018-02-02T00:16:05.079Z,1009.71
2018-02-02T00:17:05.190Z,1009.68
2018-02-02T00:18:05.136Z,1009.72
2018-02-02T00:19:05.108Z,1009.65
2018-02-02T00:20:05.097Z,1009.68
2018-02-02T00:21:05.287Z,1009.67
2018-02-02T00:22:05.189Z,1009.68
2018-02-02T00:23:05.107Z,1009.67
2018-02-02T00:24:05.154Z,1009.6
2018-02-02T00:25:05.064Z,1009.57
2018-02-02T00:26:05.222Z,1009.66
2018-02-02T00:27:05.055Z,1009.65
2018-02-02T00:28:05.074Z,1009.65
2018-02-02T00:29:05.109Z,1009.69
2018-02-02T00:30:05.144Z,1009.66
2018-02-02T00:31:05.140Z,1009.64
2018-02-02T00:32:05.179Z,1009.63
2018-02-02T00:33:05.160Z,1009.65
2018-02-02T00:34:07.176Z,1009.59
2018-02-02T00:35:07.184Z,1009.55
2018-02-02T00:36:07.086Z,1009.56
2018-02-02T00:37:07.202Z,1009.54
2018-02-02T00:38:07.156Z,1009.5
2018-02-02T00:39:07.172Z,1009.53
2018-02-02T00:40:07.102Z,1009.56
2018-02-02T00:41:07.145Z,1009.6
2018-02-02T00:42:07.163Z,1009.64
2018-02-02T00:43:07.255Z,1009.67
2018-02-02T00:44:07.126Z,1009.69
2018-02-02T00:45:07.129Z,1009.7
2018-02-02T00:46:07.122Z,1009.75
2018-02-02T00:47:07.157Z,1009.7
2018-02-02T00:48:07.203Z,1009.7
2018-02-02T00:49:07.134Z,1009.74
2018-02-02T00:50:07.196Z,1009.7
2018-02-02T00:51:07.094Z,1009.7
2018-02-02T00:52:07.191Z,1009.7
2018-02-02T00:53:07.174Z,1009.74
2018-02-02T00:54:07.306Z,1009.72
2018-02-02T00:55:07.106Z,1009.76
2018-02-02T00:56:07.138Z,1009.79
2018-02-02T00:57:07.169Z,1009.79
2018-02-02T00:58:07.148Z,1009.76
2018-02-02T00:59:07.144Z,1009.76
2018-02-02T01:00:07.165Z,1009.76
2018-02-02T01:01:07.168Z,1009.78
2018-02-02T01:02:07.260Z,1009.8
2018-02-02T01:03:07.687Z,1009.76
2018-02-02T01:04:05.574Z,1009.78
2018-02-02T01:05:05.797Z,1009.81
2018-02-02T01:06:05.593Z,1009.8
2018-02-02T01:07:05.601Z,1009.81
2018-02-02T01:08:05.613Z,1009.85
2018-02-02T01:09:05.652Z,1009.81
2018-02-02T01:10:05.548Z,1009.84
2018-02-02T01:11:05.726Z,1009.88
2018-02-02T01:12:05.573Z,1009.86
2018-02-02T01:13:05.544Z,1009.87
2018-02-02T01:14:05.599Z,1009.9
2018-02-02T01:15:05.605Z,1009.89
2018-02-02T01:16:05.693Z,1009.86
2018-02-02T01:17:05.930Z,1009.86
2018-02-02T01:18:05.551Z,1009.87
2018-02-02T01:19:05.644Z,1009.84
2018-02-02T01:20:05.644Z,1009.8
2018-02-02T01:21:05.680Z,1009.81
2018-02-02T01:22:05.561Z,1009.8
2018-02-02T01:23:05.597Z,1009.79
2018-02-02T01:24:05.593Z,1009.79
2018-02-02T01:25:05.608Z,1009.79
2018-02-02T01:26:05.654Z,1009.8
2018-02-02T01:27:05.744Z,1009.8
2018-02-02T01:28:05.692Z,1009.84
2018-02-02T01:29:05.703Z,1009.86
2018-02-02T01:30:05.713Z,1009.84
2018-02-02T01:31:05.608Z,1009.84
2018-02-02T01:32:05.610Z,1009.8
2018-02-02T01:33:05.651Z,1009.82
2018-02-02T01:34:05.676Z,1009.78
2018-02-02T01:36:00.746Z,1009.76
2018-02-02T01:37:00.693Z,1009.78
2018-02-02T01:38:00.646Z,1009.69
2018-02-02T01:39:00.698Z,1009.64
2018-02-02T01:40:00.576Z,1009.64
2018-02-02T01:41:00.635Z,1009.61
2018-02-02T01:42:00.772Z,1009.66
2018-02-02T01:43:00.651Z,1009.69
2018-02-02T01:44:00.675Z,1009.64
2018-02-02T01:45:00.639Z,1009.73
2018-02-02T01:46:00.661Z,1009.7
2018-02-02T01:47:00.625Z,1009.67
2018-02-02T01:48:00.804Z,1009.66
2018-02-02T01:49:00.586Z,1009.68
2018-02-02T01:50:00.657Z,1009.7
2018-02-02T01:51:00.642Z,1009.69
2018-02-02T01:52:00.715Z,1009.73
2018-02-02T01:53:00.656Z,1009.75
2018-02-02T01:54:00.625Z,1009.75
2018-02-02T01:55:00.665Z,1009.76
2018-02-02T01:56:00.636Z,1009.77
2018-02-02T01:57:00.692Z,1009.72
2018-02-02T01:58:00.624Z,1009.76
2018-02-02T01:59:00.631Z,1009.79
2018-02-02T02:00:00.623Z,1009.78
2018-02-02T02:01:00.709Z,1009.78
2018-02-02T02:02:00.753Z,1009.79
2018-02-02T02:03:00.779Z,1009.76
2018-02-02T02:04:00.667Z,1009.78
2018-02-02T02:05:00.644Z,1009.81
2018-02-02T02:05:57.671Z,1009.76
2018-02-02T02:06:57.627Z,1009.79
2018-02-02T02:07:57.675Z,1009.81
2018-02-02T02:08:57.719Z,1009.79
2018-02-02T02:09:57.641Z,1009.81
2018-02-02T02:10:57.623Z,1009.84
2018-02-02T02:11:57.679Z,1009.84
2018-02-02T02:12:57.623Z,1009.84
2018-02-02T02:13:57.713Z,1009.81
2018-02-02T02:14:57.895Z,1009.81
2018-02-02T02:15:57.697Z,1009.83
2018-02-02T02:16:57.624Z,1009.83
2018-02-02T02:17:57.746Z,1009.86
2018-02-02T02:18:57.684Z,1009.76
2018-02-02T02:19:57.745Z,1009.73
2018-02-02T02:20:57.658Z,1009.74
2018-02-02T02:21:57.748Z,1009.68
2018-02-02T02:22:57.623Z,1009.72
2018-02-02T02:23:57.691Z,1009.69
2018-02-02T02:24:57.763Z,1009.74
2018-02-02T02:25:57.677Z,1009.71
2018-02-02T02:26:57.670Z,1009.72
2018-02-02T02:27:57.688Z,1009.66
2018-02-02T02:28:57.629Z,1009.65
2018-02-02T02:29:57.719Z,1009.65
2018-02-02T02:30:57.594Z,1009.67
2018-02-02T02:31:57.659Z,1009.68
2018-02-02T02:32:57.692Z,1009.68
2018-02-02T02:33:57.633Z,1009.68
2018-02-02T02:34:57.634Z,1009.67
2018-02-02T02:35:57.784Z,1009.73
2018-02-02T02:36:59.798Z,1009.75
2018-02-02T02:37:59.672Z,1009.74
2018-02-02T02:38:59.792Z,1009.74
2018-02-02T02:39:59.719Z,1009.75
2018-02-02T02:40:59.734Z,1009.73
2018-02-02T02:41:59.711Z,1009.75
2018-02-02T02:42:59.669Z,1009.78
2018-02-02T02:43:59.716Z,1009.74
2018-02-02T02:44:59.731Z,1009.7
2018-02-02T02:45:59.703Z,1009.69
2018-02-02T02:46:59.673Z,1009.73
2018-02-02T02:47:59.714Z,1009.71
2018-02-02T02:48:59.732Z,1009.71
2018-02-02T02:49:59.714Z,1009.73
2018-02-02T02:50:59.712Z,1009.73
2018-02-02T02:51:59.671Z,1009.75
2018-02-02T02:52:59.658Z,1009.71
2018-02-02T02:53:59.753Z,1009.79
2018-02-02T02:54:59.745Z,1009.79
2018-02-02T02:55:59.729Z,1009.75
2018-02-02T02:56:59.870Z,1009.79
2018-02-02T02:57:59.799Z,1009.79
2018-02-02T02:58:59.701Z,1009.74
2018-02-02T02:59:59.794Z,1009.76
2018-02-02T03:00:59.668Z,1009.77
2018-02-02T03:02:00.371Z,1009.76
2018-02-02T03:02:59.776Z,1009.75
2018-02-02T03:03:59.735Z,1009.76
2018-02-02T03:04:59.698Z,1009.8
2018-02-02T03:05:59.809Z,1009.75
2018-02-02T03:06:04.748Z,1009.75
2018-02-02T03:07:04.831Z,1009.76
2018-02-02T03:08:04.810Z,1009.77
2018-02-02T03:09:04.880Z,1009.76
2018-02-02T03:10:04.683Z,1009.76
2018-02-02T03:11:04.747Z,1009.75
2018-02-02T03:12:04.887Z,1009.83
2018-02-02T03:13:04.893Z,1009.83
2018-02-02T03:14:04.838Z,1009.8
2018-02-02T03:15:04.744Z,1009.8
2018-02-02T03:16:04.859Z,1009.84
2018-02-02T03:17:04.860Z,1009.86
2018-02-02T03:18:04.701Z,1009.85
2018-02-02T03:19:04.686Z,1009.86
2018-02-02T03:20:04.730Z,1009.84
2018-02-02T03:21:04.738Z,1009.85
2018-02-02T03:22:04.751Z,1009.8
2018-02-02T03:23:04.714Z,1009.79
2018-02-02T03:24:04.737Z,1009.79
2018-02-02T03:25:04.754Z,1009.79
2018-02-02T03:26:04.736Z,1009.82
2018-02-02T03:27:04.743Z,1009.8
2018-02-02T03:28:04.715Z,1009.83
2018-02-02T03:29:04.757Z,1009.76
2018-02-02T03:30:04.726Z,1009.81
2018-02-02T03:31:04.749Z,1009.77
2018-02-02T03:32:04.703Z,1009.77
2018-02-02T03:33:04.773Z,1009.75
2018-02-02T03:34:04.825Z,1009.76
2018-02-02T03:35:04.778Z,1009.77
2018-02-02T03:36:04.812Z,1009.79
2018-02-02T03:37:07.798Z,1009.79
2018-02-02T03:38:07.881Z,1009.8
2018-02-02T03:39:07.928Z,1009.78
2018-02-02T03:40:07.833Z,1009.82
2018-02-02T03:41:07.805Z,1009.84
2018-02-02T03:42:07.777Z,1009.85
2018-02-02T03:43:07.802Z,1009.82
2018-02-02T03:44:07.798Z,1009.85
2018-02-02T03:45:07.805Z,1009.87
2018-02-02T03:46:07.848Z,1009.89
2018-02-02T03:47:07.770Z,1009.9
2018-02-02T03:48:07.875Z,1009.91
2018-02-02T03:49:07.834Z,1009.9
2018-02-02T03:50:07.719Z,1009.88
2018-02-02T03:51:07.844Z,1009.88
2018-02-02T03:52:07.765Z,1009.89
2018-02-02T03:53:07.779Z,1009.87
2018-02-02T03:54:07.849Z,1009.9
2018-02-02T03:55:07.795Z,1009.9
2018-02-02T03:56:07.741Z,1009.91
2018-02-02T03:57:07.814Z,1009.94
2018-02-02T03:58:07.724Z,1009.92
2018-02-02T03:59:07.978Z,1009.92
2018-02-02T04:00:07.865Z,1009.98
2018-02-02T04:01:07.860Z,1009.94
2018-02-02T04:02:07.787Z,1009.95
2018-02-02T04:03:07.798Z,1009.96
2018-02-02T04:04:07.783Z,1009.95
2018-02-02T04:05:07.768Z,1009.97
2018-02-02T04:06:07.945Z,1009.97
2018-02-02T04:07:05.988Z,1010.01
2018-02-02T04:08:05.853Z,1009.97
2018-02-02T04:09:05.983Z,1009.98
2018-02-02T04:10:05.931Z,1009.99
2018-02-02T04:11:05.909Z,1009.96
2018-02-02T04:12:05.941Z,1009.94
2018-02-02T04:13:05.987Z,1009.95
2018-02-02T04:14:05.974Z,1009.94
2018-02-02T04:15:05.989Z,1009.93
2018-02-02T04:16:05.963Z,1009.92
2018-02-02T04:17:05.928Z,1009.94
2018-02-02T04:18:05.946Z,1009.92
2018-02-02T04:19:05.976Z,1009.92
2018-02-02T04:20:05.913Z,1009.91
2018-02-02T04:21:05.917Z,1009.93
2018-02-02T04:22:05.908Z,1009.9
2018-02-02T04:23:06.031Z,1009.9
2018-02-02T04:24:05.871Z,1009.89
2018-02-02T04:25:05.924Z,1009.9
2018-02-02T04:26:05.861Z,1009.94
2018-02-02T04:27:05.956Z,1009.95
2018-02-02T04:28:05.903Z,1009.95
2018-02-02T04:29:05.818Z,1009.91
2018-02-02T04:30:05.875Z,1009.93
2018-02-02T04:31:05.969Z,1009.91
2018-02-02T04:32:05.903Z,1009.93
2018-02-02T04:33:05.906Z,1010.01
2018-02-02T04:34:05.935Z,1009.96
2018-02-02T04:35:05.937Z,1009.98
2018-02-02T04:36:06.019Z,1009.98
2018-02-02T04:37:05.934Z,1009.91
2018-02-02T04:39:01.249Z,1009.92
2018-02-02T04:40:00.916Z,1009.87
2018-02-02T04:41:01.060Z,1009.82
2018-02-02T04:42:01.058Z,1009.84
2018-02-02T04:43:01.009Z,1009.85
2018-02-02T04:44:01.044Z,1009.87
2018-02-02T04:45:01.135Z,1009.85
2018-02-02T04:46:01.145Z,1009.87
2018-02-02T04:47:01.121Z,1009.87
2018-02-02T04:48:01.071Z,1009.83
2018-02-02T04:49:00.949Z,1009.81
2018-02-02T04:50:01.011Z,1009.8
2018-02-02T04:51:01.051Z,1009.77
2018-02-02T04:52:01.011Z,1009.76
2018-02-02T04:53:01.000Z,1009.8
2018-02-02T04:54:00.964Z,1009.82
2018-02-02T04:55:01.011Z,1009.85
2018-02-02T04:56:01.043Z,1009.83
2018-02-02T04:57:01.058Z,1009.81
2018-02-02T04:58:01.045Z,1009.85
2018-02-02T04:59:01.072Z,1009.84
2018-02-02T05:00:00.962Z,1009.82
2018-02-02T05:01:01.116Z,1009.86
2018-02-02T05:02:00.974Z,1009.85
2018-02-02T05:03:00.957Z,1009.86
2018-02-02T05:04:01.115Z,1009.86
2018-02-02T05:05:00.973Z,1009.84
2018-02-02T05:06:01.183Z,1009.87
2018-02-02T05:07:00.973Z,1009.86
2018-02-02T05:08:01.175Z,1009.87
2018-02-02T05:08:58.029Z,1009.87
2018-02-02T05:09:58.090Z,1009.83
2018-02-02T05:10:57.987Z,1009.85
2018-02-02T05:11:58.036Z,1009.86
2018-02-02T05:12:58.083Z,1009.87
2018-02-02T05:13:58.061Z,1009.86
2018-02-02T05:14:58.152Z,1009.88
2018-02-02T05:15:58.146Z,1009.88
2018-02-02T05:16:58.014Z,1009.88
2018-02-02T05:17:58.175Z,1009.84
2018-02-02T05:18:58.000Z,1009.88
2018-02-02T05:19:58.109Z,1009.86
2018-02-02T05:20:57.976Z,1009.84
2018-02-02T05:21:58.219Z,1009.79
2018-02-02T05:22:58.052Z,1009.78
2018-02-02T05:23:58.005Z,1009.75
2018-02-02T05:24:57.994Z,1009.65
2018-02-02T05:25:58.034Z,1009.71
2018-02-02T05:26:58.054Z,1009.69
2018-02-02T05:27:58.037Z,1009.63
2018-02-02T05:28:58.182Z,1009.65
2018-02-02T05:29:58.132Z,1009.64
2018-02-02T05:30:58.109Z,1009.63
2018-02-02T05:31:58.156Z,1009.68
2018-02-02T05:32:58.018Z,1009.71
2018-02-02T05:33:58.022Z,1009.66
2018-02-02T05:34:58.074Z,1009.65
2018-02-02T05:35:57.988Z,1009.72
2018-02-02T05:36:57.988Z,1009.66
2018-02-02T05:37:58.024Z,1009.66
2018-02-02T05:38:58.091Z,1009.66
2018-02-02T05:40:00.062Z,1009.65
2018-02-02T05:41:00.178Z,1009.66
2018-02-02T05:42:00.080Z,1009.7
2018-02-02T05:43:00.009Z,1009.73
2018-02-02T05:44:00.057Z,1009.73
2018-02-02T05:45:00.127Z,1009.72
2018-02-02T05:46:00.014Z,1009.7
2018-02-02T05:47:00.116Z,1009.71
2018-02-02T05:48:00.052Z,1009.69
2018-02-02T05:49:00.025Z,1009.7
2018-02-02T05:50:00.049Z,1009.7
2018-02-02T05:51:00.062Z,1009.7
2018-02-02T05:52:00.072Z,1009.65
2018-02-02T05:53:00.038Z,1009.7
2018-02-02T05:54:00.064Z,1009.7
2018-02-02T05:55:00.026Z,1009.69
2018-02-02T05:56:00.048Z,1009.68
2018-02-02T05:57:00.042Z,1009.67
2018-02-02T05:58:00.107Z,1009.68
2018-02-02T05:59:00.009Z,1009.68
2018-02-02T06:00:00.130Z,1009.68
2018-02-02T06:01:00.083Z,1009.66
2018-02-02T06:01:59.991Z,1009.66
2018-02-02T06:03:00.232Z,1009.66
2018-02-02T06:04:00.097Z,1009.65
2018-02-02T06:05:00.093Z,1009.63
2018-02-02T06:05:59.996Z,1009.67
2018-02-02T06:07:00.026Z,1009.66
2018-02-02T06:08:00.030Z,1009.66
2018-02-02T06:09:00.096Z,1009.68
2018-02-02T06:09:05.094Z,1009.66
2018-02-02T06:10:05.165Z,1009.69
2018-02-02T06:11:05.111Z,1009.74
2018-02-02T06:12:05.068Z,1009.73
2018-02-02T06:13:05.079Z,1009.76
2018-02-02T06:14:05.086Z,1009.71
2018-02-02T06:15:05.109Z,1009.68
2018-02-02T06:16:05.590Z,1009.68
2018-02-02T06:17:05.041Z,1009.6
2018-02-02T06:18:05.551Z,1009.63
2018-02-02T06:19:05.119Z,1009.61
2018-02-02T06:20:05.155Z,1009.61
2018-02-02T06:21:05.072Z,1009.63
2018-02-02T06:22:06.207Z,1009.66
2018-02-02T06:23:07.338Z,1009.67
2018-02-02T06:24:05.055Z,1009.62
2018-02-02T06:25:05.638Z,1009.6
2018-02-02T06:26:05.030Z,1009.66
2018-02-02T06:27:05.085Z,1009.68
2018-02-02T06:28:05.119Z,1009.68
2018-02-02T06:29:05.112Z,1009.72
2018-02-02T06:30:05.433Z,1009.71
2018-02-02T06:31:05.093Z,1009.71
2018-02-02T06:32:05.136Z,1009.69
2018-02-02T06:33:05.133Z,1009.66
2018-02-02T06:34:05.094Z,1009.65
2018-02-02T06:35:05.124Z,1009.75
2018-02-02T06:36:05.097Z,1009.72
2018-02-02T06:37:05.044Z,1009.69
2018-02-02T06:38:05.090Z,1009.72
2018-02-02T06:39:05.274Z,1009.74
2018-02-02T06:40:08.198Z,1009.7
2018-02-02T06:41:08.280Z,1009.71
2018-02-02T06:42:08.206Z,1009.7
2018-02-02T06:43:08.167Z,1009.68
2018-02-02T06:44:08.390Z,1009.66
2018-02-02T06:45:08.208Z,1009.67
2018-02-02T06:46:08.160Z,1009.68
2018-02-02T06:47:08.197Z,1009.71
2018-02-02T06:48:08.146Z,1009.7
2018-02-02T06:49:08.720Z,1009.7
2018-02-02T06:50:08.162Z,1009.69
2018-02-02T06:51:08.189Z,1009.63
2018-02-02T06:52:08.189Z,1009.68
2018-02-02T06:53:08.134Z,1009.64
2018-02-02T06:54:08.159Z,1009.62
2018-02-02T06:55:08.171Z,1009.63
2018-02-02T06:56:08.178Z,1009.63
2018-02-02T06:57:08.187Z,1009.6
2018-02-02T06:58:08.221Z,1009.65
2018-02-02T06:59:08.258Z,1009.67
2018-02-02T07:00:08.163Z,1009.68
2018-02-02T07:01:08.325Z,1009.68
2018-02-02T07:02:08.111Z,1009.72
2018-02-02T07:03:08.152Z,1009.73
2018-02-02T07:04:08.255Z,1009.75
2018-02-02T07:05:08.107Z,1009.68
2018-02-02T07:06:08.169Z,1009.66
2018-02-02T07:07:08.196Z,1009.68
2018-02-02T07:08:08.132Z,1009.64
2018-02-02T07:09:08.214Z,1009.62
2018-02-02T07:10:06.234Z,1009.63
2018-02-02T07:11:06.215Z,1009.6
2018-02-02T07:12:06.178Z,1009.6
2018-02-02T07:13:06.194Z,1009.58
2018-02-02T07:14:06.233Z,1009.59
2018-02-02T07:15:06.183Z,1009.64
2018-02-02T07:16:06.303Z,1009.61
2018-02-02T07:17:06.212Z,1009.63
2018-02-02T07:18:06.219Z,1009.64
2018-02-02T07:19:06.195Z,1009.67
2018-02-02T07:20:06.212Z,1009.65
2018-02-02T07:21:06.173Z,1009.68
2018-02-02T07:22:06.216Z,1009.72
2018-02-02T07:23:06.289Z,1009.68
2018-02-02T07:24:06.174Z,1009.7
2018-02-02T07:25:06.190Z,1009.71
2018-02-02T07:26:06.209Z,1009.73
2018-02-02T07:27:06.178Z,1009.71
2018-02-02T07:28:06.206Z,1009.75
2018-02-02T07:29:06.203Z,1009.76
2018-02-02T07:30:06.217Z,1009.7
2018-02-02T07:31:06.275Z,1009.75
2018-02-02T07:32:06.256Z,1009.75
2018-02-02T07:33:06.220Z,1009.74
2018-02-02T07:34:06.543Z,1009.78
2018-02-02T07:35:06.155Z,1009.76
2018-02-02T07:36:06.184Z,1009.76
2018-02-02T07:37:06.181Z,1009.75
2018-02-02T07:38:06.172Z,1009.8
2018-02-02T07:39:06.707Z,1009.87
2018-02-02T07:40:06.350Z,1009.84
2018-02-02T07:42:00.325Z,1009.79
2018-02-02T07:43:00.325Z,1009.84
2018-02-02T07:44:00.358Z,1009.81
2018-02-02T07:45:00.414Z,1009.81
2018-02-02T07:46:00.445Z,1009.8
2018-02-02T07:47:00.352Z,1009.74
2018-02-02T07:48:00.350Z,1009.8
2018-02-02T07:49:00.342Z,1009.86
2018-02-02T07:50:00.366Z,1009.82
2018-02-02T07:51:00.338Z,1009.82
2018-02-02T07:52:00.418Z,1009.79
2018-02-02T07:53:00.353Z,1009.78
2018-02-02T07:54:00.306Z,1009.8
2018-02-02T07:55:00.308Z,1009.79
2018-02-02T07:56:00.327Z,1009.78
2018-02-02T07:57:00.298Z,1009.8
2018-02-02T07:58:00.351Z,1009.8
2018-02-02T07:59:00.304Z,1009.85
2018-02-02T08:00:00.332Z,1009.88
2018-02-02T08:01:00.336Z,1009.86
2018-02-02T08:02:00.296Z,1009.87
2018-02-02T08:03:00.415Z,1009.81
2018-02-02T08:04:00.324Z,1009.84
2018-02-02T08:05:00.331Z,1009.81
2018-02-02T08:06:00.368Z,1009.83
2018-02-02T08:07:00.344Z,1009.82
2018-02-02T08:08:00.399Z,1009.8
2018-02-02T08:09:00.408Z,1009.81
2018-02-02T08:10:00.334Z,1009.78
2018-02-02T08:11:00.628Z,1009.76
2018-02-02T08:11:56.428Z,1009.75
2018-02-02T08:12:56.426Z,1009.82
2018-02-02T08:13:56.423Z,1009.8
2018-02-02T08:14:56.419Z,1009.87
2018-02-02T08:15:56.399Z,1009.8
2018-02-02T08:16:56.451Z,1009.81
2018-02-02T08:17:56.469Z,1009.79
2018-02-02T08:18:56.474Z,1009.79
2018-02-02T08:19:56.375Z,1009.76
2018-02-02T08:20:56.417Z,1009.84
2018-02-02T08:21:56.362Z,1009.81
2018-02-02T08:22:56.431Z,1009.88
2018-02-02T08:23:56.364Z,1009.86
2018-02-02T08:24:56.375Z,1009.83
2018-02-02T08:25:56.386Z,1009.84
2018-02-02T08:26:56.462Z,1009.86
2018-02-02T08:27:56.441Z,1009.86
2018-02-02T08:28:56.415Z,1009.81
2018-02-02T08:29:56.434Z,1009.86
2018-02-02T08:30:56.394Z,1009.83
2018-02-02T08:31:56.428Z,1009.82
2018-02-02T08:32:56.412Z,1009.83
2018-02-02T08:33:56.491Z,1009.81
2018-02-02T08:36:06.919Z,1009.8
2018-02-02T08:36:56.462Z,1009.83
2018-02-02T08:37:56.375Z,1009.79
2018-02-02T08:38:56.492Z,1009.86
2018-02-02T08:39:56.391Z,1009.82
2018-02-02T08:40:56.490Z,1009.81
2018-02-02T08:41:56.487Z,1009.8
2018-02-02T08:42:58.500Z,1009.86
2018-02-02T08:43:58.449Z,1009.77
2018-02-02T08:44:58.465Z,1009.81
2018-02-02T08:45:58.447Z,1009.85
2018-02-02T08:46:58.475Z,1009.81
2018-02-02T08:47:58.594Z,1009.82
2018-02-02T08:48:58.479Z,1009.85
2018-02-02T08:49:58.472Z,1009.87
2018-02-02T08:50:58.494Z,1009.81
2018-02-02T08:51:58.500Z,1009.85
2018-02-02T08:52:58.529Z,1009.83
2018-02-02T08:53:58.501Z,1009.86
2018-02-02T08:54:58.477Z,1009.86
2018-02-02T08:55:58.454Z,1009.84
2018-02-02T08:56:58.443Z,1009.86
2018-02-02T08:57:58.516Z,1009.9
2018-02-02T08:58:58.461Z,1009.86
2018-02-02T08:59:58.487Z,1009.94
2018-02-02T09:00:58.564Z,1009.85
2018-02-02T09:01:58.497Z,1009.91
2018-02-02T09:02:58.524Z,1009.86
2018-02-02T09:03:58.480Z,1009.86
2018-02-02T09:04:58.461Z,1009.79
2018-02-02T09:05:59.467Z,1009.87
2018-02-02T09:06:58.486Z,1009.82
2018-02-02T09:07:58.459Z,1009.79
2018-02-02T09:08:58.450Z,1009.84
2018-02-02T09:09:58.456Z,1009.78
2018-02-02T09:10:58.810Z,1009.78
2018-02-02T09:11:58.600Z,1009.76
2018-02-02T09:12:05.606Z,1009.71
2018-02-02T09:13:05.687Z,1009.78
2018-02-02T09:14:05.763Z,1009.72
2018-02-02T09:15:06.072Z,1009.78
2018-02-02T09:16:05.795Z,1009.7
2018-02-02T09:17:05.470Z,1009.63
2018-02-02T09:18:05.890Z,1009.67
2018-02-02T09:19:05.574Z,1009.75
2018-02-02T09:20:05.643Z,1009.79
2018-02-02T09:21:05.601Z,1009.81
2018-02-02T09:22:05.280Z,1009.92
2018-02-02T09:23:05.221Z,1009.86
2018-02-02T09:24:05.667Z,1009.9
2018-02-02T09:25:05.617Z,1009.87
2018-02-02T09:26:05.711Z,1009.92
2018-02-02T09:27:05.484Z,1009.93
2018-02-02T09:28:05.699Z,1009.9
2018-02-02T09:29:05.666Z,1009.88
2018-02-02T09:30:05.632Z,1009.95
2018-02-02T09:31:05.245Z,1009.97
2018-02-02T09:32:05.715Z,1009.92
2018-02-02T09:33:05.549Z,1009.9
2018-02-02T09:34:05.667Z,1009.95
2018-02-02T09:35:05.530Z,1009.96
2018-02-02T09:36:05.668Z,1010
2018-02-02T09:37:05.668Z,1009.99
2018-02-02T09:38:05.459Z,1010.04
2018-02-02T09:39:06.046Z,1010
2018-02-02T09:40:05.084Z,1010.04
2018-02-02T09:41:05.508Z,1010.03
2018-02-02T09:42:05.646Z,1010.06
2018-02-02T09:43:08.707Z,1010.03
2018-02-02T09:44:08.638Z,1010.05
2018-02-02T09:45:08.704Z,1010.05
2018-02-02T09:46:08.628Z,1010.08
2018-02-02T09:47:08.615Z,1010.09
2018-02-02T09:48:08.710Z,1010.13
2018-02-02T09:49:08.624Z,1010.11
2018-02-02T09:50:08.708Z,1010.16
2018-02-02T09:51:08.583Z,1010.17
2018-02-02T09:52:08.607Z,1010.13
2018-02-02T09:53:08.650Z,1010.12
2018-02-02T09:54:08.595Z,1010.14
2018-02-02T09:55:08.620Z,1010.11
2018-02-02T09:56:08.690Z,1010.13
2018-02-02T09:57:08.622Z,1010.16
2018-02-02T09:58:08.624Z,1010.14
2018-02-02T09:59:08.639Z,1010.14
2018-02-02T10:00:08.654Z,1010.16
2018-02-02T10:01:09.398Z,1010.12
2018-02-02T10:02:08.618Z,1010.13
2018-02-02T10:03:08.655Z,1010.15
2018-02-02T10:04:08.654Z,1010.14
2018-02-02T10:05:08.601Z,1010.17
2018-02-02T10:06:08.733Z,1010.15
2018-02-02T10:07:08.660Z,1010.14
2018-02-02T10:08:08.598Z,1010.19
2018-02-02T10:09:09.282Z,1010.19
2018-02-02T10:10:08.615Z,1010.22
2018-02-02T10:11:08.616Z,1010.22
2018-02-02T10:12:08.814Z,1010.27
2018-02-02T10:13:08.081Z,1010.27
2018-02-02T10:14:06.824Z,1010.19
2018-02-02T10:15:07.547Z,1010.21
2018-02-02T10:16:06.761Z,1010.26
2018-02-02T10:17:06.775Z,1010.24
2018-02-02T10:18:06.820Z,1010.25
2018-02-02T10:19:06.902Z,1010.23
2018-02-02T10:20:06.776Z,1010.27
2018-02-02T10:21:06.807Z,1010.25
2018-02-02T10:22:07.234Z,1010.27
2018-02-02T10:23:06.802Z,1010.25
2018-02-02T10:24:06.773Z,1010.22
2018-02-02T10:25:07.044Z,1010.2
2018-02-02T10:26:06.865Z,1010.22
2018-02-02T10:27:06.801Z,1010.2
2018-02-02T10:28:06.765Z,1010.18
2018-02-02T10:29:06.786Z,1010.25
2018-02-02T10:30:06.951Z,1010.19
2018-02-02T10:31:08.132Z,1010.14
2018-02-02T10:32:06.824Z,1010.11
2018-02-02T10:33:06.917Z,1010.16
2018-02-02T10:34:07.079Z,1010.12
2018-02-02T10:35:06.821Z,1010.13
2018-02-02T10:36:06.857Z,1010.13
2018-02-02T10:37:06.754Z,1010.16
2018-02-02T10:38:06.899Z,1010.1
2018-02-02T10:39:07.992Z,1010.08
2018-02-02T10:40:07.361Z,1010.05
2018-02-02T10:41:06.733Z,1010.02
2018-02-02T10:42:06.778Z,1010.01
2018-02-02T10:43:06.899Z,1010.03
2018-02-02T10:45:02.509Z,1010.05
2018-02-02T10:46:00.981Z,1010.02
2018-02-02T10:47:00.982Z,1010.05
2018-02-02T10:48:01.017Z,1010.09
2018-02-02T10:49:01.167Z,1010
2018-02-02T10:50:00.951Z,1010.03
2018-02-02T10:51:01.515Z,1010.05
2018-02-02T10:52:00.929Z,1010.02
2018-02-02T10:53:00.941Z,1010.04
2018-02-02T10:54:01.641Z,1010.02
2018-02-02T10:55:02.179Z,1010.04
2018-02-02T10:56:00.898Z,1010.08
2018-02-02T10:57:00.939Z,1010
2018-02-02T10:58:01.002Z,1010.05
2018-02-02T10:59:00.901Z,1010.08
2018-02-02T11:00:00.931Z,1010.1
2018-02-02T11:01:00.868Z,1010.05
2018-02-02T11:02:00.911Z,1010.12
2018-02-02T11:03:00.936Z,1010.07
2018-02-02T11:04:00.974Z,1010.02
2018-02-02T11:05:00.926Z,1010.1
2018-02-02T11:06:00.909Z,1010.05
2018-02-02T11:07:01.011Z,1009.95
2018-02-02T11:08:01.053Z,1009.92
2018-02-02T11:09:00.934Z,1009.95
2018-02-02T11:10:00.944Z,1009.96
2018-02-02T11:11:00.892Z,1009.93
2018-02-02T11:12:00.988Z,1009.88
2018-02-02T11:13:01.029Z,1009.99
2018-02-02T11:14:01.087Z,1009.98
2018-02-02T11:14:56.938Z,1009.99
2018-02-02T11:15:56.983Z,1010
2018-02-02T11:16:57.033Z,1009.99
2018-02-02T11:17:56.984Z,1010.07
2018-02-02T11:18:56.909Z,1009.99
2018-02-02T11:19:56.947Z,1009.95
2018-02-02T11:20:56.902Z,1010.04
2018-02-02T11:21:56.980Z,1010.03
2018-02-02T11:22:56.943Z,1010.04
2018-02-02T11:23:56.992Z,1009.98
2018-02-02T11:24:56.994Z,1010.06
2018-02-02T11:25:56.961Z,1010.05
2018-02-02T11:26:56.922Z,1010.02
2018-02-02T11:27:56.983Z,1009.97
2018-02-02T11:28:56.930Z,1010
2018-02-02T11:29:56.924Z,1010.02
2018-02-02T11:30:56.891Z,1009.97
2018-02-02T11:31:56.950Z,1009.93
2018-02-02T11:32:56.935Z,1009.93
2018-02-02T11:33:56.919Z,1009.9
2018-02-02T11:34:56.914Z,1009.94
2018-02-02T11:35:56.927Z,1009.91
2018-02-02T11:36:56.966Z,1009.91
2018-02-02T11:37:57.072Z,1009.85
2018-02-02T11:38:57.368Z,1009.82
2018-02-02T11:39:56.994Z,1009.86
2018-02-02T11:40:56.987Z,1009.83
2018-02-02T11:41:56.904Z,1009.85
2018-02-02T11:42:56.938Z,1009.81
2018-02-02T11:43:57.176Z,1009.84
2018-02-02T11:44:57.018Z,1009.84
2018-02-02T11:47:58.984Z,1009.85
2018-02-02T11:48:59.068Z,1009.88
2018-02-02T11:49:59.017Z,1009.92
2018-02-02T11:50:59.033Z,1009.94
2018-02-02T11:51:58.993Z,1009.91
2018-02-02T11:52:58.995Z,1009.92
2018-02-02T11:53:59.044Z,1009.91
2018-02-02T11:54:59.007Z,1009.9
2018-02-02T11:55:59.047Z,1009.93
2018-02-02T11:56:59.013Z,1009.93
2018-02-02T11:57:59.051Z,1009.95
2018-02-02T11:58:59.119Z,1009.91
2018-02-02T11:59:58.983Z,1010.02
2018-02-02T12:00:58.978Z,1009.94
2018-02-02T12:01:58.997Z,1009.9
2018-02-02T12:02:58.992Z,1009.9
2018-02-02T12:03:59.040Z,1009.96
2018-02-02T12:04:58.967Z,1009.89
2018-02-02T12:05:59.025Z,1009.9
2018-02-02T12:06:58.980Z,1009.96
2018-02-02T12:07:59.050Z,1009.96
2018-02-02T12:08:59.050Z,1009.93
2018-02-02T12:09:59.043Z,1009.96
2018-02-02T12:10:59.049Z,1009.89
2018-02-02T12:11:59.146Z,1009.91